Time;durP1;ratioP1;P1;durP2;ratioP2;P2;SDS_P1;SDS_P2;PMS_P1;PMS_P2;Temp;Humidity;BMP_temperature;BMP_pressure;BME280_temperature;BME280_humidity;BME280_pressure;Samples;Min_cycle;Max_cycle;Signal;HPM_P1;HPM_P2
2021/07/17 00:00:46;;;;;;;3.67;1.45;;;20.90;57.70;;;;;;5068538;28;20039;-30
2021/07/17 00:03:12;;;;;;;1.98;1.60;;;20.90;58.00;;;;;;5075518;28;20073;-30
2021/07/17 00:05:38;;;;;;;2.42;1.52;;;20.80;58.00;;;;;;5071899;28;20032;-31
2021/07/17 00:08:04;;;;;;;1.35;1.25;;;20.80;57.80;;;;;;5069845;28;20405;-31
2021/07/17 00:10:36;;;;;;;2.72;1.40;;;20.80;57.90;;;;;;5071779;28;20055;-35
2021/07/17 00:13:02;;;;;;;2.30;1.60;;;20.80;57.80;;;;;;5074064;28;20147;-33
2021/07/17 00:15:27;;;;;;;1.75;1.50;;;20.80;58.10;;;;;;5075969;28;20099;-27
2021/07/17 00:17:53;;;;;;;1.92;1.80;;;20.70;58.10;;;;;;5073193;28;21338;-31
2021/07/17 00:20:19;;;;;;;2.20;1.50;;;20.70;58.00;;;;;;5075982;28;20024;-31
2021/07/17 00:22:44;;;;;;;2.15;1.50;;;20.70;58.20;;;;;;5070269;28;20020;-27
2021/07/17 00:25:12;;;;;;;2.33;1.75;;;20.70;58.00;;;;;;5075678;28;20025;-29
2021/07/17 00:27:38;;;;;;;2.47;1.40;;;20.60;58.00;;;;;;5079376;28;20060;-26
2021/07/17 00:30:04;;;;;;;1.40;1.30;;;20.70;58.10;;;;;;5051961;28;20062;-32
2021/07/17 00:32:30;;;;;;;1.60;1.40;;;20.60;58.40;;;;;;5069616;28;20382;-29
2021/07/17 00:34:55;;;;;;;3.00;1.67;;;20.60;58.20;;;;;;5067536;28;20082;-28
2021/07/17 00:37:21;;;;;;;2.45;1.73;;;20.60;58.30;;;;;;5078266;28;20035;-27
2021/07/17 00:39:47;;;;;;;1.48;1.38;;;20.60;58.20;;;;;;5070083;28;20044;-28
2021/07/17 00:42:12;;;;;;;2.15;1.60;;;20.50;58.30;;;;;;5076676;28;20020;-29
2021/07/17 00:44:38;;;;;;;1.40;1.25;;;20.50;58.20;;;;;;5072224;28;20408;-27
2021/07/17 00:47:03;;;;;;;2.10;1.52;;;20.40;58.40;;;;;;5066223;28;20025;-30
2021/07/17 00:49:31;;;;;;;2.58;1.52;;;20.40;58.40;;;;;;5040559;28;20024;-25
2021/07/17 00:51:57;;;;;;;1.45;1.35;;;20.40;58.70;;;;;;5069630;28;20082;-29
2021/07/17 00:54:26;;;;;;;1.65;1.20;;;20.40;58.60;;;;;;5064449;28;20103;-32
2021/07/17 00:56:53;;;;;;;2.20;1.40;;;20.30;58.70;;;;;;5070494;28;20159;-30
2021/07/17 00:59:20;;;;;;;2.28;1.58;;;20.30;58.80;;;;;;5054878;28;20033;-27
2021/07/17 01:01:46;;;;;;;1.80;1.30;;;20.20;58.80;;;;;;5043322;28;20096;-28
2021/07/17 01:04:12;;;;;;;1.67;1.52;;;20.20;58.80;;;;;;5053028;28;20036;-26
2021/07/17 01:06:38;;;;;;;2.28;1.52;;;20.30;58.80;;;;;;5052058;28;20040;-37
2021/07/17 01:09:03;;;;;;;1.95;1.38;;;20.20;59.50;;;;;;5052090;28;20036;-33
2021/07/17 01:11:29;;;;;;;1.60;1.50;;;20.20;58.90;;;;;;5072621;28;20084;-26
2021/07/17 01:13:55;;;;;;;1.80;1.40;;;20.20;58.90;;;;;;5076840;28;20412;-29
2021/07/17 01:16:20;;;;;;;1.73;1.50;;;20.10;59.10;;;;;;5070924;28;20028;-36
2021/07/17 01:18:46;;;;;;;2.08;1.60;;;20.20;59.00;;;;;;5060067;28;20036;-27
2021/07/17 01:21:16;;;;;;;1.85;1.33;;;20.10;59.00;;;;;;5037468;28;20040;-30
2021/07/17 01:23:41;;;;;;;1.67;1.20;;;20.10;59.10;;;;;;5050670;28;20027;-30
2021/07/17 01:26:07;;;;;;;1.70;1.23;;;20.00;59.20;;;;;;5076212;28;20028;-30
2021/07/17 01:28:32;;;;;;;2.03;1.38;;;19.90;59.30;;;;;;5060952;28;20025;-32
2021/07/17 01:30:58;;;;;;;1.98;1.33;;;19.90;59.30;;;;;;5072326;28;21456;-26
2021/07/17 01:33:23;;;;;;;1.58;1.25;;;19.90;59.30;;;;;;5078682;28;20222;-28
2021/07/17 01:35:52;;;;;;;1.40;1.30;;;20.00;59.40;;;;;;5075532;28;20020;-36
2021/07/17 01:38:17;;;;;;;1.67;1.40;;;20.00;59.30;;;;;;5052159;28;20467;-32
2021/07/17 01:40:47;;;;;;;1.73;1.63;;;19.90;59.50;;;;;;5078212;28;20032;-27
2021/07/17 01:43:12;;;;;;;2.08;1.30;;;19.90;59.60;;;;;;5067763;28;20059;-26
2021/07/17 01:45:39;;;;;;;1.65;1.02;;;19.90;59.60;;;;;;5059040;28;20072;-29
2021/07/17 01:48:05;;;;;;;1.60;1.33;;;19.90;59.50;;;;;;5073088;28;20043;-30
2021/07/17 01:50:30;;;;;;;1.20;1.10;;;19.80;59.70;;;;;;5074774;28;20032;-32
2021/07/17 01:52:56;;;;;;;1.70;1.60;;;19.80;59.80;;;;;;5078523;28;20086;-26
2021/07/17 01:55:22;;;;;;;1.38;1.20;;;19.80;59.60;;;;;;5081326;28;20637;-28
2021/07/17 01:57:48;;;;;;;1.73;1.30;;;19.90;60.40;;;;;;5070188;28;20028;-34
2021/07/17 02:00:14;;;;;;;1.80;1.70;;;19.80;60.00;;;;;;5069756;28;20037;-32
2021/07/17 02:02:40;;;;;;;1.80;1.70;;;19.80;60.00;;;;;;5071257;28;20100;-29
2021/07/17 02:05:06;;;;;;;2.50;1.65;;;19.70;60.00;;;;;;5050905;28;20111;-30
2021/07/17 02:07:32;;;;;;;2.88;2.10;;;19.80;60.30;;;;;;5070230;28;20021;-26
2021/07/17 02:09:58;;;;;;;1.70;1.10;;;19.80;60.20;;;;;;5075272;28;20029;-25
2021/07/17 02:12:24;;;;;;;1.92;1.48;;;19.70;60.60;;;;;;5082815;28;20388;-30
2021/07/17 02:14:51;;;;;;;2.38;1.52;;;19.70;60.70;;;;;;5053921;28;20027;-25
2021/07/17 02:17:16;;;;;;;1.52;1.38;;;19.70;60.80;;;;;;5079657;28;20397;-27
2021/07/17 02:19:42;;;;;;;3.60;1.50;;;19.70;61.00;;;;;;5039361;28;20044;-28
2021/07/17 02:22:07;;;;;;;2.00;1.38;;;19.70;61.10;;;;;;5080596;28;20061;-26
2021/07/17 02:24:33;;;;;;;2.70;1.40;;;19.70;61.80;;;;;;5071707;28;20032;-31
2021/07/17 02:26:58;;;;;;;3.70;1.60;;;19.60;61.20;;;;;;5066096;28;20094;-28
2021/07/17 02:29:24;;;;;;;1.67;1.50;;;19.60;61.50;;;;;;5068477;28;20412;-31
2021/07/17 02:31:50;;;;;;;1.75;1.30;;;19.60;61.60;;;;;;5070723;28;20032;-34
2021/07/17 02:34:15;;;;;;;3.10;1.65;;;19.60;61.60;;;;;;5070409;28;20085;-30
2021/07/17 02:36:41;;;;;;;1.65;1.40;;;19.70;61.50;;;;;;5084621;28;20512;-28
2021/07/17 02:39:07;;;;;;;3.85;1.40;;;19.80;61.10;;;;;;5079999;28;20028;-30
2021/07/17 02:41:33;;;;;;;1.50;1.40;;;19.80;61.40;;;;;;5075563;28;20032;-30
2021/07/17 02:43:59;;;;;;;2.97;1.75;;;19.80;61.40;;;;;;5077060;28;20073;-36
2021/07/17 02:46:24;;;;;;;2.42;1.63;;;19.60;61.60;;;;;;5077929;28;20055;-29
2021/07/17 02:48:50;;;;;;;1.95;1.65;;;19.70;61.50;;;;;;5069967;28;20077;-29
2021/07/17 02:51:15;;;;;;;2.35;1.75;;;19.70;61.50;;;;;;5069540;28;20028;-25
2021/07/17 02:53:41;;;;;;;1.60;1.50;;;19.80;61.40;;;;;;5075568;28;20157;-27
2021/07/17 02:56:07;;;;;;;1.95;1.40;;;19.70;61.80;;;;;;5072738;28;20024;-29
2021/07/17 02:58:32;;;;;;;1.88;1.50;;;19.70;61.70;;;;;;5070883;28;20121;-30
2021/07/17 03:00:58;;;;;;;1.83;1.60;;;19.80;61.60;;;;;;5073486;28;20616;-27
2021/07/17 03:03:23;;;;;;;2.40;1.73;;;19.70;61.70;;;;;;5073613;28;20072;-31
2021/07/17 03:05:49;;;;;;;3.63;1.88;;;19.70;61.90;;;;;;5066540;28;20027;-28
2021/07/17 03:08:19;;;;;;;2.50;1.73;;;19.70;61.90;;;;;;5077221;28;20029;-30
2021/07/17 03:10:45;;;;;;;3.22;1.45;;;19.60;62.20;;;;;;5067877;28;20139;-28
2021/07/17 03:13:10;;;;;;;1.50;1.40;;;19.60;62.20;;;;;;5077383;28;20107;-34
2021/07/17 03:15:36;;;;;;;2.53;1.58;;;19.50;62.50;;;;;;5074088;28;20041;-30
2021/07/17 03:18:02;;;;;;;2.70;1.67;;;19.40;62.80;;;;;;5068307;28;20573;-28
2021/07/17 03:20:27;;;;;;;2.35;1.52;;;19.50;62.60;;;;;;5073497;28;20443;-31
2021/07/17 03:22:53;;;;;;;1.75;1.40;;;19.60;62.30;;;;;;5071357;28;20090;-30
2021/07/17 03:25:19;;;;;;;2.90;1.65;;;19.50;62.50;;;;;;5072294;28;20032;-28
2021/07/17 03:27:44;;;;;;;2.20;1.73;;;19.60;63.30;;;;;;5071563;28;20405;-25
2021/07/17 03:30:11;;;;;;;2.10;1.90;;;19.60;62.40;;;;;;5068339;28;20090;-28
2021/07/17 03:32:36;;;;;;;1.70;1.50;;;19.50;62.70;;;;;;5064370;28;20082;-32
2021/07/17 03:35:02;;;;;;;2.25;1.98;;;19.50;63.00;;;;;;5070062;28;20028;-28
2021/07/17 03:37:28;;;;;;;1.92;1.55;;;19.50;62.90;;;;;;5079576;28;20025;-27
2021/07/17 03:39:54;;;;;;;2.65;1.90;;;19.40;64.00;;;;;;5068363;28;20044;-27
2021/07/17 03:42:19;;;;;;;2.35;1.38;;;19.40;63.20;;;;;;5084569;28;20091;-28
2021/07/17 03:44:45;;;;;;;2.30;2.10;;;19.30;63.20;;;;;;5066022;28;20029;-30
2021/07/17 03:47:10;;;;;;;1.63;1.52;;;19.30;63.40;;;;;;5043987;28;20021;-27
2021/07/17 03:49:42;;;;;;;2.03;1.85;;;19.30;63.60;;;;;;5073389;28;20099;-27
2021/07/17 03:52:19;;;;;;;2.92;1.52;;;19.20;63.80;;;;;;5071899;28;20024;-35
2021/07/17 03:54:44;;;;;;;2.13;1.90;;;19.20;63.70;;;;;;5067105;28;20029;-27
2021/07/17 03:57:10;;;;;;;2.10;1.80;;;19.20;63.60;;;;;;5061239;28;20024;-31
2021/07/17 03:59:36;;;;;;;2.22;1.50;;;19.10;63.90;;;;;;5061019;28;20500;-26
2021/07/17 04:02:03;;;;;;;3.58;1.83;;;19.30;63.50;;;;;;5065704;28;20066;-31
2021/07/17 04:04:29;;;;;;;2.15;1.85;;;19.20;63.80;;;;;;5068020;28;20033;-26
2021/07/17 04:06:54;;;;;;;3.20;1.92;;;19.10;63.80;;;;;;5074139;28;20023;-26
2021/07/17 04:09:20;;;;;;;2.72;1.80;;;19.10;63.90;;;;;;5054656;28;20047;-26
2021/07/17 04:11:46;;;;;;;1.92;1.58;;;19.10;63.80;;;;;;5068208;28;20048;-33
2021/07/17 04:14:11;;;;;;;2.47;1.80;;;19.10;64.00;;;;;;5059864;28;20555;-33
2021/07/17 04:16:37;;;;;;;2.67;1.80;;;19.10;63.90;;;;;;5080047;28;20082;-28
2021/07/17 04:19:03;;;;;;;3.22;1.65;;;19.10;64.00;;;;;;5068323;28;20027;-25
2021/07/17 04:21:28;;;;;;;2.83;2.03;;;19.00;64.10;;;;;;5084148;28;20424;-29
2021/07/17 04:23:54;;;;;;;2.50;1.90;;;19.00;65.10;;;;;;5074694;28;20107;-26
2021/07/17 04:26:19;;;;;;;3.75;2.08;;;18.90;64.50;;;;;;5072751;28;20443;-31
2021/07/17 04:28:45;;;;;;;3.42;2.15;;;18.90;64.50;;;;;;5067780;28;20047;-31
2021/07/17 04:31:10;;;;;;;2.78;1.60;;;18.90;64.50;;;;;;5071332;28;20029;-29
2021/07/17 04:33:37;;;;;;;2.20;2.00;;;18.90;64.20;;;;;;5067875;28;20020;-33
2021/07/17 04:36:04;;;;;;;1.75;1.60;;;19.00;64.00;;;;;;5067993;28;20035;-30
2021/07/17 04:38:29;;;;;;;2.80;1.77;;;19.00;64.30;;;;;;5035074;28;20414;-26
2021/07/17 04:40:55;;;;;;;2.70;1.88;;;18.90;64.30;;;;;;5068510;28;20066;-28
2021/07/17 04:43:20;;;;;;;2.92;2.33;;;18.80;64.50;;;;;;5071388;28;20516;-24
2021/07/17 04:45:46;;;;;;;1.77;1.67;;;18.90;64.50;;;;;;5072742;28;20039;-28
2021/07/17 04:48:12;;;;;;;1.85;1.75;;;18.90;64.50;;;;;;5079687;28;20071;-36
2021/07/17 04:50:37;;;;;;;3.38;2.10;;;18.90;64.50;;;;;;5070172;28;20157;-34
2021/07/17 04:53:07;;;;;;;2.05;1.83;;;18.90;64.60;;;;;;5069693;28;20485;-26
2021/07/17 04:55:32;;;;;;;2.10;1.88;;;18.90;64.60;;;;;;5069897;28;20037;-25
2021/07/17 04:57:58;;;;;;;1.73;1.63;;;18.90;64.60;;;;;;5084430;28;20074;-29
2021/07/17 05:00:23;;;;;;;2.92;1.63;;;18.90;64.90;;;;;;5071194;28;20064;-28
2021/07/17 05:02:50;;;;;;;1.95;1.80;;;18.80;64.70;;;;;;5065114;28;20413;-26
2021/07/17 05:05:17;;;;;;;2.67;2.03;;;18.80;64.80;;;;;;5075717;28;20107;-26
2021/07/17 05:07:43;;;;;;;2.78;2.13;;;18.80;65.10;;;;;;5073798;28;20013;-29
2021/07/17 05:10:11;;;;;;;2.95;2.13;;;18.80;65.00;;;;;;5068081;28;20519;-28
2021/07/17 05:12:37;;;;;;;2.25;1.80;;;18.80;65.10;;;;;;5073014;28;20033;-27
2021/07/17 05:15:04;;;;;;;2.65;2.03;;;18.90;65.00;;;;;;5077152;28;20111;-28
2021/07/17 05:17:30;;;;;;;2.92;1.83;;;18.80;65.30;;;;;;5069273;28;20025;-27
2021/07/17 05:19:56;;;;;;;4.75;1.90;;;18.80;65.40;;;;;;5067396;28;20413;-33
2021/07/17 05:22:21;;;;;;;3.17;2.42;;;18.80;65.10;;;;;;5075989;28;20074;-28
2021/07/17 05:24:47;;;;;;;4.30;2.08;;;18.80;65.20;;;;;;5080863;28;20035;-33
2021/07/17 05:27:12;;;;;;;2.00;1.90;;;18.80;65.70;;;;;;5074819;28;20378;-28
2021/07/17 05:29:38;;;;;;;3.00;2.10;;;18.70;65.70;;;;;;5072254;28;20031;-36
2021/07/17 05:32:04;;;;;;;2.40;2.20;;;18.80;65.90;;;;;;5069793;28;20020;-30
2021/07/17 05:34:29;;;;;;;2.35;2.15;;;18.70;65.90;;;;;;5066628;28;20452;-30
2021/07/17 05:36:55;;;;;;;2.42;2.20;;;18.80;66.70;;;;;;5074396;28;20028;-27
2021/07/17 05:39:20;;;;;;;2.92;1.90;;;18.80;65.70;;;;;;5075760;28;20117;-25
2021/07/17 05:41:46;;;;;;;1.95;1.55;;;18.80;65.90;;;;;;5062565;28;20520;-30
2021/07/17 05:44:11;;;;;;;2.47;1.63;;;18.70;66.20;;;;;;5063511;28;20025;-30
2021/07/17 05:46:37;;;;;;;2.33;1.65;;;18.70;66.30;;;;;;5068185;28;20118;-28
2021/07/17 05:49:02;;;;;;;3.33;2.05;;;18.70;66.50;;;;;;5077903;28;20023;-36
2021/07/17 05:51:28;;;;;;;2.63;2.08;;;18.70;66.50;;;;;;5072032;28;20068;-28
2021/07/17 05:53:54;;;;;;;2.13;2.03;;;18.70;66.70;;;;;;5069666;28;20031;-26
2021/07/17 05:56:19;;;;;;;3.10;1.75;;;18.70;66.70;;;;;;5069069;28;20028;-26
2021/07/17 05:58:45;;;;;;;3.45;1.83;;;18.70;66.50;;;;;;5074015;28;20127;-26
2021/07/17 06:01:10;;;;;;;2.55;2.05;;;18.70;66.60;;;;;;5071843;28;20082;-26
2021/07/17 06:03:36;;;;;;;3.67;2.03;;;18.70;66.90;;;;;;5045055;28;20028;-26
2021/07/17 06:06:01;;;;;;;2.03;1.80;;;18.70;66.70;;;;;;5075048;28;20082;-29
2021/07/17 06:08:27;;;;;;;1.88;1.77;;;18.80;66.70;;;;;;5077732;28;20471;-27
2021/07/17 06:10:52;;;;;;;2.35;2.15;;;18.90;66.50;;;;;;5074674;28;20118;-33
2021/07/17 06:13:18;;;;;;;2.03;1.60;;;18.90;66.40;;;;;;5071496;28;20036;-27
2021/07/17 06:15:44;;;;;;;1.60;1.50;;;18.90;66.40;;;;;;5079367;28;20419;-32
2021/07/17 06:18:09;;;;;;;1.98;1.88;;;18.90;66.70;;;;;;5071713;28;20033;-30
2021/07/17 06:20:35;;;;;;;2.22;1.80;;;18.90;66.60;;;;;;5067139;28;20069;-29
2021/07/17 06:23:00;;;;;;;5.07;2.10;;;18.90;66.70;;;;;;5068827;28;20032;-29
2021/07/17 06:25:26;;;;;;;2.50;1.92;;;18.80;67.10;;;;;;5074878;28;20063;-29
2021/07/17 06:27:52;;;;;;;2.40;1.77;;;18.90;67.20;;;;;;5070420;28;20069;-30
2021/07/17 06:30:18;;;;;;;3.17;1.48;;;18.90;67.30;;;;;;5068497;28;20376;-32
2021/07/17 06:32:43;;;;;;;2.38;1.75;;;18.90;67.40;;;;;;5067092;28;20052;-32
2021/07/17 06:35:09;;;;;;;2.70;1.80;;;19.00;67.00;;;;;;5075318;28;20445;-26
2021/07/17 06:37:40;;;;;;;2.28;1.90;;;19.00;67.10;;;;;;5072790;28;20493;-30
2021/07/17 06:40:08;;;;;;;2.10;1.90;;;19.00;67.10;;;;;;5073338;28;20067;-27
2021/07/17 06:42:42;;;;;;;1.63;1.45;;;19.00;67.30;;;;;;5068968;28;20115;-27
2021/07/17 06:45:09;;;;;;;2.25;1.88;;;19.00;67.40;;;;;;5071013;28;20032;-25
2021/07/17 06:47:34;;;;;;;1.83;1.70;;;18.90;67.60;;;;;;5075249;28;20119;-26
2021/07/17 06:50:01;;;;;;;3.40;2.03;;;19.00;67.70;;;;;;5073000;28;20460;-28
2021/07/17 06:52:26;;;;;;;2.03;1.70;;;18.90;67.80;;;;;;5076172;28;20561;-27
2021/07/17 06:54:52;;;;;;;2.42;1.80;;;18.90;67.80;;;;;;5070883;28;20103;-29
2021/07/17 06:57:17;;;;;;;2.30;1.67;;;19.20;67.50;;;;;;5068903;28;20440;-29
2021/07/17 06:59:43;;;;;;;2.17;1.95;;;19.30;66.90;;;;;;5066360;28;20040;-26
2021/07/17 07:02:08;;;;;;;3.55;1.80;;;19.50;66.50;;;;;;5069072;28;20052;-29
2021/07/17 07:04:34;;;;;;;1.70;1.60;;;19.40;66.50;;;;;;5067405;28;20032;-29
2021/07/17 07:06:59;;;;;;;3.55;1.80;;;19.40;67.00;;;;;;5071222;28;20048;-33
2021/07/17 07:09:25;;;;;;;2.30;2.08;;;19.30;67.20;;;;;;5075849;28;20137;-31
2021/07/17 07:11:51;;;;;;;2.22;1.98;;;19.40;68.00;;;;;;5071000;28;20040;-29
2021/07/17 07:14:16;;;;;;;2.22;1.95;;;19.30;67.10;;;;;;5068593;28;20449;-27
2021/07/17 07:16:42;;;;;;;2.30;1.90;;;19.30;67.20;;;;;;5076401;28;20031;-29
2021/07/17 07:19:07;;;;;;;2.67;1.90;;;19.40;67.30;;;;;;5071570;28;20100;-30
2021/07/17 07:21:33;;;;;;;2.53;1.90;;;19.40;67.30;;;;;;5080724;28;20052;-27
2021/07/17 07:23:59;;;;;;;4.57;2.10;;;19.40;66.90;;;;;;5075452;28;20292;-28
2021/07/17 07:26:24;;;;;;;3.45;2.40;;;19.40;67.20;;;;;;5050022;28;20307;-30
2021/07/17 07:28:50;;;;;;;2.35;1.63;;;19.40;67.20;;;;;;5070923;28;20089;-42
2021/07/17 07:31:16;;;;;;;2.83;2.10;;;19.40;66.90;;;;;;5068701;28;20465;-29
2021/07/17 07:33:41;;;;;;;4.43;2.08;;;19.40;68.00;;;;;;5070127;28;20104;-30
2021/07/17 07:36:07;;;;;;;2.00;1.90;;;19.30;67.50;;;;;;5067949;28;20029;-28
2021/07/17 07:38:32;;;;;;;2.15;1.73;;;19.30;67.10;;;;;;5066743;28;20071;-33
2021/07/17 07:40:58;;;;;;;2.20;1.92;;;19.40;66.70;;;;;;5068710;28;20179;-33
2021/07/17 07:43:24;;;;;;;2.25;2.05;;;19.40;66.50;;;;;;5069620;28;20485;-27
2021/07/17 07:45:49;;;;;;;2.00;1.75;;;19.50;66.40;;;;;;5070037;28;20051;-28
2021/07/17 07:48:15;;;;;;;2.58;1.70;;;19.60;66.00;;;;;;5069934;28;20063;-27
2021/07/17 07:50:40;;;;;;;3.03;2.30;;;19.60;66.00;;;;;;5067110;28;20024;-34
2021/07/17 07:53:06;;;;;;;1.98;1.70;;;19.50;65.90;;;;;;5070852;28;20017;-32
2021/07/17 07:55:31;;;;;;;3.95;2.33;;;19.50;66.00;;;;;;5066447;28;20028;-31
2021/07/17 07:57:57;;;;;;;3.30;1.67;;;19.50;65.90;;;;;;5071255;28;20081;-32
2021/07/17 08:00:22;;;;;;;2.33;2.00;;;19.60;66.00;;;;;;5050185;28;20089;-26
2021/07/17 08:02:48;;;;;;;2.30;2.10;;;19.70;65.70;;;;;;5070907;28;20126;-30
2021/07/17 08:05:14;;;;;;;2.03;1.83;;;19.70;65.40;;;;;;5074159;28;20404;-29
2021/07/17 08:07:39;;;;;;;1.95;1.48;;;19.80;65.20;;;;;;5071591;28;20040;-35
2021/07/17 08:10:05;;;;;;;1.60;1.50;;;19.80;65.00;;;;;;5071843;28;20036;-33
2021/07/17 08:12:31;;;;;;;2.33;1.50;;;19.90;65.00;;;;;;5072399;28;20049;-27
2021/07/17 08:14:56;;;;;;;1.60;1.50;;;19.90;64.60;;;;;;5074281;28;20063;-26
2021/07/17 08:17:22;;;;;;;1.80;1.60;;;20.00;64.60;;;;;;5075130;28;20017;-30
2021/07/17 08:19:48;;;;;;;2.70;1.50;;;20.00;64.40;;;;;;5073029;28;20477;-27
2021/07/17 08:22:13;;;;;;;1.80;1.70;;;20.00;64.40;;;;;;5072354;28;20031;-30
2021/07/17 08:24:39;;;;;;;1.52;1.40;;;20.00;64.20;;;;;;5079172;28;20525;-32
2021/07/17 08:27:05;;;;;;;1.65;1.20;;;20.10;64.30;;;;;;5079412;28;20028;-31
2021/07/17 08:29:31;;;;;;;1.60;1.50;;;20.10;63.90;;;;;;5085219;28;20146;-27
2021/07/17 08:31:57;;;;;;;1.70;1.60;;;20.20;64.10;;;;;;5075506;28;20159;-33
2021/07/17 08:34:22;;;;;;;1.60;1.50;;;20.20;63.80;;;;;;5072073;28;20040;-29
2021/07/17 08:36:48;;;;;;;1.48;1.35;;;20.20;63.70;;;;;;5079850;28;20027;-35
2021/07/17 08:39:13;;;;;;;1.88;1.58;;;20.30;64.00;;;;;;5071179;28;20045;-28
2021/07/17 08:41:41;;;;;;;1.48;1.38;;;20.30;64.30;;;;;;5074718;28;20048;-34
2021/07/17 08:44:06;;;;;;;2.00;1.80;;;20.40;64.50;;;;;;5043560;28;20515;-26
2021/07/17 08:46:33;;;;;;;2.00;1.83;;;20.40;64.50;;;;;;5063306;28;20032;-32
2021/07/17 08:48:59;;;;;;;2.08;1.95;;;20.40;64.70;;;;;;5055525;28;20083;-28
2021/07/17 08:51:24;;;;;;;1.65;1.55;;;20.50;65.10;;;;;;5058519;28;20020;-31
2021/07/17 08:53:50;;;;;;;1.77;1.67;;;20.50;64.70;;;;;;5075484;28;20484;-30
2021/07/17 08:56:16;;;;;;;1.60;1.50;;;20.60;64.80;;;;;;5052280;28;20035;-30
2021/07/17 08:58:42;;;;;;;2.17;1.85;;;20.60;64.80;;;;;;5070614;28;20032;-28
2021/07/17 09:01:07;;;;;;;1.77;1.67;;;20.70;64.50;;;;;;5070631;28;20080;-25
2021/07/17 09:03:33;;;;;;;2.78;1.83;;;20.80;64.60;;;;;;5049790;28;20146;-35
2021/07/17 09:05:59;;;;;;;1.55;1.45;;;20.80;64.30;;;;;;5066140;28;21468;-34
2021/07/17 09:08:24;;;;;;;1.58;1.48;;;20.80;64.40;;;;;;5067102;28;20032;-27
2021/07/17 09:10:54;;;;;;;1.98;1.77;;;20.80;64.50;;;;;;5064762;28;20139;-29
2021/07/17 09:13:27;;;;;;;1.50;1.40;;;20.90;64.30;;;;;;5062374;28;20543;-26
2021/07/17 09:16:06;;;;;;;1.73;1.63;;;20.90;64.00;;;;;;5065650;28;20033;-30
2021/07/17 09:18:52;;;;;;;2.35;2.15;;;21.00;63.80;;;;;;5068583;28;20040;-26
2021/07/17 09:21:28;;;;;;;1.63;1.52;;;21.00;63.70;;;;;;5065599;28;20044;-28
2021/07/17 09:23:55;;;;;;;1.65;1.55;;;21.00;63.70;;;;;;5064292;28;20802;-32
2021/07/17 09:26:31;;;;;;;3.15;2.00;;;21.10;63.60;;;;;;5066824;28;20766;-25
2021/07/17 09:29:00;;;;;;;1.92;1.73;;;21.10;63.40;;;;;;5065880;28;20032;-31
2021/07/17 09:31:28;;;;;;;1.88;1.77;;;21.10;63.50;;;;;;5063043;28;20025;-27
2021/07/17 09:34:08;;;;;;;2.30;2.10;;;21.20;63.40;;;;;;5063052;28;20094;-26
2021/07/17 09:36:34;;;;;;;1.85;1.75;;;21.20;63.40;;;;;;5066633;28;20082;-30
2021/07/17 09:39:00;;;;;;;1.80;1.70;;;21.20;63.20;;;;;;5046305;28;20809;-27
2021/07/17 09:41:26;;;;;;;1.85;1.73;;;21.30;63.30;;;;;;5064199;28;20672;-28
2021/07/17 09:43:59;;;;;;;1.95;1.85;;;21.30;63.00;;;;;;5062207;28;20032;-27
2021/07/17 09:46:26;;;;;;;2.10;2.00;;;21.30;62.90;;;;;;5066034;28;20575;-30
2021/07/17 09:48:56;;;;;;;1.98;1.88;;;21.30;62.90;;;;;;5066157;28;20060;-26
2021/07/17 09:51:29;;;;;;;2.22;2.03;;;21.40;62.50;;;;;;5070451;28;20520;-28
2021/07/17 09:54:00;;;;;;;1.60;1.50;;;21.40;62.80;;;;;;5062892;28;20025;-27
2021/07/17 09:56:31;;;;;;;1.73;1.63;;;21.40;62.60;;;;;;5063941;28;20032;-33
2021/07/17 09:59:00;;;;;;;2.00;1.85;;;21.40;62.50;;;;;;5068584;28;20036;-27
2021/07/17 10:01:46;;;;;;;2.05;1.95;;;21.50;62.40;;;;;;5063346;28;20044;-26
2021/07/17 10:04:15;;;;;;;1.92;1.80;;;21.50;62.40;;;;;;5044220;28;20072;-28
2021/07/17 10:07:00;;;;;;;1.58;1.48;;;21.50;62.10;;;;;;5064875;28;20036;-30
2021/07/17 10:09:33;;;;;;;1.98;1.88;;;21.50;62.00;;;;;;5064479;28;20033;-29
2021/07/17 10:12:02;;;;;;;1.60;1.50;;;21.50;62.00;;;;;;5064122;28;20504;-28
2021/07/17 10:14:33;;;;;;;1.77;1.67;;;21.60;62.10;;;;;;5063965;28;20052;-35
2021/07/17 10:17:04;;;;;;;2.53;1.85;;;21.60;61.30;;;;;;5062721;28;20043;-28
2021/07/17 10:19:30;;;;;;;1.90;1.80;;;21.60;61.40;;;;;;5047434;28;20032;-28
2021/07/17 10:21:56;;;;;;;2.30;2.10;;;21.50;61.50;;;;;;5063505;28;20398;-30
2021/07/17 10:24:22;;;;;;;2.00;1.88;;;21.50;61.50;;;;;;5062421;28;20058;-35
2021/07/17 10:26:48;;;;;;;3.70;1.88;;;21.50;61.40;;;;;;5067010;28;20043;-33
2021/07/17 10:29:16;;;;;;;2.88;1.63;;;21.50;61.40;;;;;;5062603;28;20059;-30
2021/07/17 10:31:42;;;;;;;2.35;2.20;;;21.50;61.30;;;;;;5065360;28;20062;-34
2021/07/17 10:34:08;;;;;;;1.80;1.70;;;21.50;61.30;;;;;;5059947;28;21600;-28
2021/07/17 10:36:35;;;;;;;2.00;1.90;;;21.60;61.20;;;;;;5072563;28;20032;-28
2021/07/17 10:39:03;;;;;;;1.85;1.70;;;21.60;60.80;;;;;;5039696;28;20036;-30
2021/07/17 10:41:32;;;;;;;1.80;1.70;;;21.70;61.10;;;;;;5061961;28;20031;-32
2021/07/17 10:43:58;;;;;;;2.30;2.10;;;21.70;60.90;;;;;;5002645;28;20452;-33
2021/07/17 10:46:33;;;;;;;1.75;1.65;;;21.70;60.90;;;;;;5057035;28;20059;-32
2021/07/17 10:49:00;;;;;;;1.98;1.88;;;21.80;60.90;;;;;;5065012;28;20194;-28
2021/07/17 10:51:30;;;;;;;2.17;1.98;;;21.80;60.70;;;;;;5068853;28;20040;-27
2021/07/17 10:53:58;;;;;;;2.20;1.77;;;21.80;60.70;;;;;;5043546;28;20032;-36
2021/07/17 10:56:30;;;;;;;2.17;1.98;;;21.80;61.00;;;;;;5059577;28;20713;-28
2021/07/17 10:59:07;;;;;;;2.08;1.95;;;21.80;60.90;;;;;;5066020;28;20538;-31
2021/07/17 11:02:02;;;;;;;2.42;2.22;;;21.90;60.90;;;;;;5059972;28;20064;-30
2021/07/17 11:04:39;;;;;;;4.25;2.13;;;22.00;60.70;;;;;;4700714;28;10001291;-34
2021/07/17 11:07:17;;;;;;;2.58;2.20;;;21.90;61.00;;;;;;5066654;28;20039;-29
2021/07/17 11:09:52;;;;;;;2.40;1.90;;;21.90;61.40;;;;;;5064791;28;20039;-35
2021/07/17 11:12:22;;;;;;;2.20;2.00;;;21.90;62.00;;;;;;5070848;28;20036;-29
2021/07/17 11:14:47;;;;;;;2.75;1.90;;;21.80;61.20;;;;;;5062421;28;20031;-32
2021/07/17 11:17:33;;;;;;;2.13;2.03;;;21.80;63.30;;;;;;5065976;28;20100;-29
2021/07/17 11:20:18;;;;;;;2.85;2.63;;;21.80;62.00;;;;;;5051072;28;20044;-26
2021/07/17 11:22:50;;;;;;;3.40;2.38;;;21.80;61.40;;;;;;5066135;28;20036;-25
2021/07/17 11:25:16;;;;;;;3.00;2.10;;;21.80;61.70;;;;;;5051113;28;20032;-29
2021/07/17 11:27:42;;;;;;;3.65;2.38;;;21.80;61.60;;;;;;5055461;28;20021;-29
2021/07/17 11:30:18;;;;;;;2.42;2.22;;;21.80;61.60;;;;;;5057916;28;20436;-26
2021/07/17 11:33:04;;;;;;;2.13;1.92;;;21.80;61.70;;;;;;5057804;28;20390;-25
2021/07/17 11:35:34;;;;;;;2.20;2.00;;;21.80;61.70;;;;;;5057569;28;20107;-27
2021/07/17 11:38:00;;;;;;;2.20;2.10;;;21.80;61.60;;;;;;5057485;28;20502;-27
2021/07/17 11:40:25;;;;;;;4.88;2.17;;;21.80;61.70;;;;;;5055980;28;20036;-27
2021/07/17 11:42:51;;;;;;;2.58;2.38;;;21.80;61.70;;;;;;5055048;28;20529;-31
2021/07/17 11:45:16;;;;;;;2.20;2.10;;;21.80;61.60;;;;;;5056913;28;20029;-29
2021/07/17 11:47:43;;;;;;;2.40;2.30;;;21.80;61.70;;;;;;5057521;28;20045;-28
2021/07/17 11:50:09;;;;;;;3.08;1.88;;;21.80;61.70;;;;;;5057412;28;20029;-29
2021/07/17 11:52:36;;;;;;;3.13;2.20;;;21.80;61.70;;;;;;5057166;28;20021;-28
2021/07/17 11:55:05;;;;;;;2.08;1.98;;;21.80;61.70;;;;;;5053394;28;20111;-26
2021/07/17 11:57:32;;;;;;;1.73;1.63;;;21.80;61.70;;;;;;5056723;28;20025;-26
2021/07/17 12:00:00;;;;;;;2.42;2.25;;;21.80;61.70;;;;;;5057226;28;20497;-27
2021/07/17 12:02:27;;;;;;;2.28;2.17;;;21.80;61.70;;;;;;5057425;28;20029;-29
2021/07/17 12:04:54;;;;;;;2.13;2.03;;;21.80;61.70;;;;;;5038958;28;20029;-28
2021/07/17 12:07:31;;;;;;;2.47;2.17;;;21.90;62.50;;;;;;5068000;28;20493;-28
2021/07/17 12:09:58;;;;;;;2.22;2.13;;;21.90;61.90;;;;;;5069044;28;20044;-27
2021/07/17 12:12:31;;;;;;;1.98;1.88;;;21.90;61.80;;;;;;5067911;28;20091;-27
2021/07/17 12:15:04;;;;;;;1.67;1.58;;;21.90;61.80;;;;;;5057724;28;20564;-26
2021/07/17 12:17:29;;;;;;;2.10;2.00;;;21.90;61.90;;;;;;5057277;28;20021;-25
2021/07/17 12:20:02;;;;;;;2.35;2.25;;;21.90;61.90;;;;;;5057227;28;20536;-29
2021/07/17 12:22:27;;;;;;;2.70;2.33;;;21.90;61.90;;;;;;5055764;28;20032;-30
2021/07/17 12:25:05;;;;;;;2.65;2.47;;;21.90;61.90;;;;;;5054351;28;20037;-27
2021/07/17 12:27:31;;;;;;;2.45;2.13;;;21.90;62.00;;;;;;5056408;28;20033;-30
2021/07/17 12:29:56;;;;;;;2.35;2.25;;;21.90;62.10;;;;;;5057106;28;20024;-29
2021/07/17 12:32:22;;;;;;;2.15;2.05;;;21.90;62.00;;;;;;5057386;28;20392;-29
2021/07/17 12:34:57;;;;;;;2.20;2.10;;;21.90;62.00;;;;;;5057128;28;20013;-26
2021/07/17 12:37:27;;;;;;;2.25;2.08;;;21.90;62.10;;;;;;5037066;28;20425;-25
2021/07/17 12:40:10;;;;;;;2.10;2.00;;;21.90;62.20;;;;;;5054090;28;20029;-26
2021/07/17 12:42:46;;;;;;;1.90;1.80;;;22.00;62.10;;;;;;5046814;28;20498;-28
2021/07/17 12:45:16;;;;;;;2.30;2.20;;;21.90;62.20;;;;;;5066964;28;20043;-25